createdAt,value
2022-11-23T00:01:39.042Z,6.40
2022-11-23T00:04:12.813Z,6.27
2022-11-23T00:06:42.789Z,7.40
2022-11-23T00:09:12.651Z,6.70
2022-11-23T00:11:41.019Z,6.63
2022-11-23T00:14:09.384Z,7.13
2022-11-23T00:16:38.009Z,6.80
2022-11-23T00:19:06.338Z,6.30
2022-11-23T00:21:34.666Z,7.83
2022-11-23T00:24:04.658Z,8.13
2022-11-23T00:26:32.939Z,8.03
2022-11-23T00:29:01.276Z,7.60
2022-11-23T00:31:29.661Z,6.57
2022-11-23T00:33:59.262Z,6.90
2022-11-23T00:36:29.418Z,7.57
2022-11-23T00:39:01.131Z,7.03
2022-11-23T00:41:30.813Z,6.53
2022-11-23T00:43:59.651Z,6.30
2022-11-23T00:46:29.724Z,6.07
2022-11-23T00:49:00.504Z,6.00
2022-11-23T00:51:31.477Z,6.57
2022-11-23T00:54:01.244Z,6.13
2022-11-23T00:56:32.150Z,6.40
2022-11-23T00:59:03.500Z,6.83
2022-11-23T01:01:34.859Z,7.23
2022-11-23T01:04:06.061Z,7.00
2022-11-23T01:06:37.650Z,7.43
2022-11-23T01:09:14.444Z,7.20
2022-11-23T01:11:44.440Z,6.73
2022-11-23T01:14:13.612Z,6.40
2022-11-23T01:16:43.203Z,6.60
2022-11-23T01:19:15.209Z,6.50
2022-11-23T01:21:44.500Z,7.03
2022-11-23T01:24:16.408Z,7.93
2022-11-23T01:26:46.987Z,7.60
2022-11-23T01:29:15.657Z,7.20
2022-11-23T01:31:46.869Z,7.40
2022-11-23T01:34:19.120Z,7.07
2022-11-23T01:36:47.846Z,8.13
2022-11-23T01:39:16.308Z,8.50
2022-11-23T01:41:47.510Z,7.57
2022-11-23T01:44:27.671Z,8.60
2022-11-23T01:46:59.432Z,8.57
2022-11-23T01:49:31.512Z,8.17
2022-11-23T01:52:08.006Z,8.87
2022-11-23T01:54:42.268Z,7.90
2022-11-23T01:57:18.143Z,9.10
2022-11-23T01:59:47.846Z,7.93
2022-11-23T02:02:18.199Z,7.70
2022-11-23T02:04:51.625Z,7.60
2022-11-23T02:07:21.672Z,7.90
2022-11-23T02:09:51.587Z,8.20
2022-11-23T02:12:21.955Z,8.03
2022-11-23T02:14:51.241Z,7.63
2022-11-23T02:17:22.045Z,8.77
2022-11-23T02:20:03.701Z,8.73
2022-11-23T02:22:43.394Z,8.87
2022-11-23T02:25:26.435Z,9.07
2022-11-23T02:27:56.554Z,7.83
2022-11-23T02:30:25.252Z,8.47
2022-11-23T02:32:55.466Z,8.87
2022-11-23T02:35:24.148Z,9.17
2022-11-23T02:37:54.415Z,8.23
2022-11-23T02:40:29.394Z,8.37
2022-11-23T02:43:01.370Z,8.67
2022-11-23T02:45:40.535Z,7.90
2022-11-23T02:48:08.915Z,9.00
2022-11-23T02:50:40.219Z,8.57
2022-11-23T02:53:08.906Z,9.40
2022-11-23T02:55:37.837Z,9.00
2022-11-23T02:58:08.575Z,9.63
2022-11-23T03:00:37.305Z,9.57
2022-11-23T03:03:06.429Z,8.70
2022-11-23T03:05:35.413Z,8.97
2022-11-23T03:08:07.482Z,9.10
2022-11-23T03:10:36.660Z,8.60
2022-11-23T03:13:05.292Z,8.60
2022-11-23T03:15:38.478Z,8.57
2022-11-23T03:18:07.948Z,8.33
2022-11-23T03:20:37.102Z,7.63
2022-11-23T03:23:07.338Z,8.17
2022-11-23T03:25:35.771Z,8.27
2022-11-23T03:28:06.592Z,7.70
2022-11-23T03:30:36.974Z,6.60
2022-11-23T03:33:08.012Z,5.40
2022-11-23T03:35:38.542Z,5.20
2022-11-23T03:38:25.565Z,5.10
2022-11-23T03:40:54.911Z,4.47
2022-11-23T03:43:30.064Z,4.97
2022-11-23T03:46:00.516Z,4.97
2022-11-23T03:48:29.158Z,4.83
2022-11-23T03:50:57.590Z,4.90
2022-11-23T03:53:26.013Z,4.77
2022-11-23T03:55:55.471Z,5.07
2022-11-23T03:58:25.813Z,5.33
2022-11-23T04:00:56.195Z,5.70
2022-11-23T04:03:26.004Z,5.60
2022-11-23T04:06:09.550Z,6.57
2022-11-23T04:09:16.557Z,6.37
2022-11-23T04:12:01.679Z,6.47
2022-11-23T04:14:30.657Z,6.73
2022-11-23T04:17:00.852Z,6.13
2022-11-23T04:19:31.408Z,6.60
2022-11-23T04:22:00.044Z,7.97
2022-11-23T04:24:31.357Z,8.10
2022-11-23T04:27:03.956Z,8.03
2022-11-23T04:29:32.571Z,6.93
2022-11-23T04:32:01.075Z,7.30
2022-11-23T04:34:31.098Z,7.23
2022-11-23T04:37:01.695Z,7.67
2022-11-23T04:39:36.139Z,8.07
2022-11-23T04:42:18.509Z,7.37
2022-11-23T04:45:05.531Z,8.27
2022-11-23T04:47:34.569Z,7.03
2022-11-23T04:50:10.033Z,8.07
2022-11-23T04:52:38.815Z,7.07
2022-11-23T04:55:14.717Z,8.50
2022-11-23T04:57:56.404Z,8.23
2022-11-23T05:00:28.133Z,8.67
2022-11-23T05:03:01.528Z,8.27
2022-11-23T05:05:39.157Z,7.70
2022-11-23T05:08:08.432Z,7.47
2022-11-23T05:10:49.686Z,7.13
2022-11-23T05:13:18.262Z,7.63
2022-11-23T05:15:48.433Z,7.67
2022-11-23T05:18:21.884Z,7.33
2022-11-23T05:20:52.896Z,8.13
2022-11-23T05:23:21.812Z,8.53
2022-11-23T05:25:51.735Z,8.37
2022-11-23T05:28:39.768Z,8.80
2022-11-23T05:31:10.860Z,9.63
2022-11-23T05:33:39.832Z,9.57
2022-11-23T05:36:14.008Z,10.13
2022-11-23T05:38:44.122Z,9.63
2022-11-23T05:41:17.596Z,9.17
2022-11-23T05:43:47.177Z,9.10
2022-11-23T05:46:21.284Z,9.87
2022-11-23T05:48:49.924Z,9.53
2022-11-23T05:51:20.493Z,9.33
2022-11-23T05:53:51.094Z,9.53
2022-11-23T05:56:54.854Z,9.57
2022-11-23T05:59:28.075Z,9.80
2022-11-23T06:02:02.060Z,8.90
2022-11-23T06:04:34.226Z,9.47
2022-11-23T06:07:04.320Z,9.40
2022-11-23T06:09:42.547Z,9.10
2022-11-23T06:12:13.450Z,9.20
2022-11-23T06:14:41.799Z,9.13
2022-11-23T06:17:10.752Z,9.07
2022-11-23T06:19:44.383Z,8.93
2022-11-23T06:22:16.426Z,8.50
2022-11-23T06:25:11.538Z,8.10
2022-11-23T06:27:55.608Z,9.07
2022-11-23T06:30:29.096Z,9.03
2022-11-23T06:33:05.256Z,10.20
2022-11-23T06:35:39.942Z,9.40
2022-11-23T06:38:09.813Z,10.80
2022-11-23T06:40:38.407Z,9.77
2022-11-23T06:43:06.944Z,10.47
2022-11-23T06:45:41.639Z,10.60
2022-11-23T06:48:14.115Z,9.83
2022-11-23T06:50:47.105Z,9.60
2022-11-23T06:53:18.682Z,10.13
2022-11-23T06:55:52.641Z,9.80
2022-11-23T06:58:22.697Z,9.90
2022-11-23T07:00:52.371Z,9.33
2022-11-23T07:03:23.790Z,8.90
2022-11-23T07:05:59.484Z,9.43
2022-11-23T07:08:32.128Z,9.03
2022-11-23T07:11:10.448Z,9.70
2022-11-23T07:13:39.278Z,9.70
2022-11-23T07:16:09.802Z,8.67
2022-11-23T07:18:39.474Z,8.60
2022-11-23T07:21:08.959Z,9.57
2022-11-23T07:23:41.527Z,9.40
2022-11-23T07:26:10.690Z,8.90
2022-11-23T07:28:40.419Z,9.67
2022-11-23T07:31:09.587Z,9.63
2022-11-23T07:33:38.373Z,9.37
2022-11-23T07:36:07.780Z,9.40
2022-11-23T07:38:39.754Z,9.93
2022-11-23T07:41:08.942Z,8.53
2022-11-23T07:43:52.161Z,9.30
2022-11-23T07:46:21.519Z,8.97
2022-11-23T07:48:50.375Z,9.37
2022-11-23T07:51:20.197Z,10.20
2022-11-23T07:53:50.057Z,8.97
2022-11-23T07:56:18.830Z,9.57
2022-11-23T07:58:47.427Z,9.70
2022-11-23T08:01:18.257Z,9.17
2022-11-23T08:03:47.397Z,8.47
2022-11-23T08:06:17.655Z,9.63
2022-11-23T08:08:46.441Z,9.23
2022-11-23T08:11:18.384Z,9.47
2022-11-23T08:13:46.885Z,9.30
2022-11-23T08:16:15.533Z,9.67
2022-11-23T08:18:44.192Z,9.07
2022-11-23T08:21:12.926Z,9.40
2022-11-23T08:23:41.401Z,9.10
2022-11-23T08:26:13.613Z,9.13
2022-11-23T08:28:43.897Z,8.40
2022-11-23T08:31:14.888Z,8.90
2022-11-23T08:33:43.525Z,8.60
2022-11-23T08:36:12.123Z,9.10
2022-11-23T08:38:40.980Z,8.40
2022-11-23T08:41:09.645Z,9.27
2022-11-23T08:43:38.131Z,9.07
2022-11-23T08:46:11.119Z,8.37
2022-11-23T08:48:40.274Z,9.50
2022-11-23T08:51:09.592Z,9.20
2022-11-23T08:53:38.298Z,9.43
2022-11-23T08:56:09.106Z,9.37
2022-11-23T08:58:37.835Z,9.23
2022-11-23T09:01:11.230Z,8.50
2022-11-23T09:03:39.904Z,9.50
2022-11-23T09:06:09.085Z,9.57
2022-11-23T09:08:37.965Z,8.80
2022-11-23T09:11:09.759Z,9.77
2022-11-23T09:13:39.654Z,9.43
2022-11-23T09:16:11.291Z,9.13
2022-11-23T09:18:39.903Z,7.53
2022-11-23T09:21:08.438Z,7.73
2022-11-23T09:23:36.743Z,7.70
2022-11-23T09:26:06.957Z,8.20
2022-11-23T09:28:37.195Z,7.67
2022-11-23T09:31:09.965Z,6.87
2022-11-23T09:33:38.289Z,7.10
2022-11-23T09:36:07.395Z,7.60
2022-11-23T09:38:55.520Z,8.47
2022-11-23T09:41:43.439Z,7.90
2022-11-23T09:44:25.032Z,7.90
2022-11-23T09:47:22.603Z,7.77
2022-11-23T09:50:03.250Z,8.47
2022-11-23T09:52:33.242Z,7.63
2022-11-23T09:55:13.099Z,7.73
2022-11-23T09:57:44.697Z,7.90
2022-11-23T10:00:21.699Z,7.90
2022-11-23T10:02:51.673Z,7.90
2022-11-23T10:05:26.438Z,7.73
2022-11-23T10:08:11.654Z,7.50
2022-11-23T10:10:46.190Z,7.50
2022-11-23T10:13:35.420Z,7.63
2022-11-23T10:16:23.713Z,7.73
2022-11-23T10:19:04.622Z,7.70
2022-11-23T10:21:53.364Z,7.33
2022-11-23T10:24:29.382Z,7.77
2022-11-23T10:26:59.615Z,7.53
2022-11-23T10:29:36.096Z,7.33
2022-11-23T10:32:16.830Z,7.60
2022-11-23T10:34:57.099Z,7.70
2022-11-23T10:37:26.317Z,8.37
2022-11-23T10:39:54.773Z,7.93
2022-11-23T10:42:30.003Z,7.97
2022-11-23T10:45:01.715Z,8.20
2022-11-23T10:47:40.850Z,8.00
2022-11-23T10:50:27.027Z,8.53
2022-11-23T10:52:59.194Z,9.33
2022-11-23T10:55:31.598Z,8.83
2022-11-23T10:58:01.221Z,9.63
2022-11-23T11:00:31.628Z,8.70
2022-11-23T11:03:03.440Z,9.23
2022-11-23T11:06:07.527Z,9.13
2022-11-23T11:08:31.629Z,9.63
2022-11-23T11:11:03.510Z,8.70
2022-11-23T11:13:40.999Z,7.87
2022-11-23T11:16:23.281Z,8.27
2022-11-23T11:18:52.017Z,7.63
2022-11-23T11:21:24.985Z,7.00
2022-11-23T11:23:56.735Z,6.73
2022-11-23T11:26:28.832Z,5.90
2022-11-23T11:29:01.468Z,6.20
2022-11-23T11:31:52.413Z,6.83
2022-11-23T11:34:31.626Z,5.60
2022-11-23T11:37:12.091Z,5.23
2022-11-23T11:39:47.858Z,6.43
2022-11-23T11:42:35.168Z,6.37
2022-11-23T11:45:08.478Z,5.50
2022-11-23T11:47:44.561Z,4.60
2022-11-23T11:50:30.142Z,5.20
2022-11-23T11:53:10.159Z,5.27
2022-11-23T11:55:52.179Z,3.73
2022-11-23T11:58:25.740Z,3.50
2022-11-23T12:01:08.043Z,3.67
2022-11-23T12:03:45.615Z,2.90
2022-11-23T12:06:25.158Z,3.30
2022-11-23T12:09:04.638Z,4.33
2022-11-23T12:11:33.841Z,4.37
2022-11-23T12:14:05.761Z,4.77
2022-11-23T12:16:55.428Z,4.07
2022-11-23T12:19:41.397Z,3.83
2022-11-23T12:22:35.310Z,3.63
2022-11-23T12:25:30.873Z,3.65
2022-11-23T12:28:29.002Z,3.42
2022-11-23T12:31:11.932Z,2.92
2022-11-23T12:34:11.425Z,3.33
2022-11-23T12:37:01.417Z,2.90
2022-11-23T12:40:01.595Z,3.40
2022-11-23T12:42:43.118Z,2.70
2022-11-23T12:45:44.594Z,2.85
2022-11-23T12:48:33.698Z,2.78
2022-11-23T12:51:18.831Z,2.53
2022-11-23T12:53:59.624Z,3.00
2022-11-23T12:56:56.028Z,2.70
2022-11-23T12:59:31.805Z,3.10
2022-11-23T13:02:07.966Z,2.88
2022-11-23T13:05:14.386Z,2.90
2022-11-23T13:08:30.261Z,2.80
2022-11-23T13:11:23.854Z,2.72
2022-11-23T13:14:15.275Z,2.72
2022-11-23T13:17:23.396Z,3.10
2022-11-23T13:20:42.527Z,2.80
2022-11-23T13:23:11.469Z,3.10
2022-11-23T13:25:40.791Z,2.67
2022-11-23T13:28:31.620Z,2.53
2022-11-23T13:31:28.824Z,2.97
2022-11-23T13:34:01.352Z,2.80
2022-11-23T13:37:11.049Z,3.20
2022-11-23T13:40:04.735Z,2.70
2022-11-23T13:42:35.327Z,2.90
2022-11-23T13:45:30.756Z,2.93
2022-11-23T13:48:48.780Z,3.30
2022-11-23T13:51:10.789Z,2.20
2022-11-23T13:53:43.045Z,2.28
2022-11-23T13:56:27.953Z,3.10
2022-11-23T13:58:59.056Z,2.75
2022-11-23T14:02:17.578Z,2.90
2022-11-23T14:04:48.289Z,2.70
2022-11-23T14:07:24.725Z,2.50
2022-11-23T14:09:58.811Z,2.67
2022-11-23T14:12:37.760Z,3.03
2022-11-23T14:15:16.480Z,3.57
2022-11-23T14:18:51.334Z,2.90
2022-11-23T14:21:32.394Z,2.72
2022-11-23T14:24:39.441Z,2.90
2022-11-23T14:27:46.270Z,3.08
2022-11-23T14:30:48.030Z,3.00
2022-11-23T14:33:37.982Z,3.15
2022-11-23T14:36:36.462Z,3.13
2022-11-23T14:39:58.006Z,3.25
2022-11-23T14:42:30.662Z,3.10
2022-11-23T14:45:04.855Z,3.20
2022-11-23T14:47:34.104Z,3.08
2022-11-23T14:50:02.869Z,3.05
2022-11-23T14:52:36.220Z,3.33
2022-11-23T14:55:08.093Z,3.20
2022-11-23T14:57:43.725Z,2.90
2022-11-23T15:00:28.334Z,3.20
2022-11-23T15:03:00.694Z,3.07
2022-11-23T15:05:33.362Z,2.83
2022-11-23T15:08:07.487Z,3.13
2022-11-23T15:10:47.271Z,3.20
2022-11-23T15:13:22.033Z,3.40
2022-11-23T15:15:56.171Z,3.70
2022-11-23T15:18:34.594Z,3.60
2022-11-23T15:21:09.044Z,3.23
2022-11-23T15:23:41.727Z,3.73
2022-11-23T15:26:41.826Z,3.50
2022-11-23T15:29:06.942Z,3.90
2022-11-23T15:31:37.786Z,3.33
2022-11-23T15:34:15.026Z,3.57
2022-11-23T15:36:45.309Z,3.77
2022-11-23T15:39:20.166Z,3.40
2022-11-23T15:41:51.143Z,3.63
2022-11-23T15:44:25.856Z,3.50
2022-11-23T15:46:59.907Z,3.30
2022-11-23T15:49:28.558Z,3.53
2022-11-23T15:52:02.266Z,3.40
2022-11-23T15:54:35.891Z,4.27
2022-11-23T15:57:10.989Z,3.87
2022-11-23T15:59:45.416Z,4.33
2022-11-23T16:02:21.152Z,4.47
2022-11-23T16:04:50.210Z,4.50
2022-11-23T16:07:20.531Z,4.27
2022-11-23T16:09:52.684Z,4.47
2022-11-23T16:12:51.749Z,4.60
2022-11-23T16:15:42.296Z,4.00
2022-11-23T16:18:26.688Z,4.70
2022-11-23T16:21:00.454Z,4.70
2022-11-23T16:23:38.555Z,4.57
2022-11-23T16:26:07.892Z,4.83
2022-11-23T16:28:40.400Z,5.30
2022-11-23T16:31:31.092Z,5.40
2022-11-23T16:33:59.743Z,5.13
2022-11-23T16:36:29.294Z,5.30
2022-11-23T16:39:04.012Z,5.50
2022-11-23T16:41:33.981Z,6.20
2022-11-23T16:44:04.684Z,5.73
2022-11-23T16:46:35.203Z,5.33
2022-11-23T16:49:05.113Z,7.23
2022-11-23T16:51:33.811Z,8.13
2022-11-23T16:54:13.473Z,11.10
2022-11-23T16:56:43.488Z,13.20
2022-11-23T16:59:18.312Z,14.20
2022-11-23T17:01:53.942Z,15.50
2022-11-23T17:04:26.124Z,15.77
2022-11-23T17:06:54.787Z,15.63
2022-11-23T17:09:23.428Z,16.60
2022-11-23T17:11:52.082Z,16.07
2022-11-23T17:14:28.076Z,17.57
2022-11-23T17:17:01.936Z,16.93
2022-11-23T17:19:30.714Z,16.87
2022-11-23T17:21:59.387Z,18.13
2022-11-23T17:24:27.650Z,17.30
2022-11-23T17:26:56.371Z,18.07
2022-11-23T17:29:26.030Z,18.37
2022-11-23T17:31:54.672Z,19.20
2022-11-23T17:34:23.304Z,19.60
2022-11-23T17:36:53.299Z,21.43
2022-11-23T17:39:25.495Z,21.77
2022-11-23T17:41:54.117Z,20.97
2022-11-23T17:44:22.677Z,21.83
2022-11-23T17:46:57.578Z,21.90
2022-11-23T17:49:28.327Z,23.10
2022-11-23T17:51:57.146Z,23.37
2022-11-23T17:54:25.843Z,21.93
2022-11-23T17:56:54.306Z,22.60
2022-11-23T17:59:22.631Z,22.57
2022-11-23T18:01:52.387Z,20.97
2022-11-23T18:04:20.740Z,21.60
2022-11-23T18:06:49.495Z,21.57
2022-11-23T18:09:18.231Z,21.13
2022-11-23T18:11:46.585Z,21.53
2022-11-23T18:14:14.896Z,20.93
2022-11-23T18:16:43.197Z,21.53
2022-11-23T18:19:14.316Z,20.60
2022-11-23T18:21:43.230Z,19.23
2022-11-23T18:24:11.554Z,17.73
2022-11-23T18:26:39.928Z,18.67
2022-11-23T18:29:12.791Z,16.53
2022-11-23T18:31:44.287Z,17.80
2022-11-23T18:34:14.112Z,18.27
2022-11-23T18:36:42.763Z,16.20
2022-11-23T18:39:11.411Z,16.70
2022-11-23T18:41:39.678Z,16.03
2022-11-23T18:44:07.983Z,15.50
2022-11-23T18:46:36.838Z,15.13
2022-11-23T18:49:05.258Z,15.23
2022-11-23T18:51:35.148Z,15.10
2022-11-23T18:54:03.776Z,16.27
2022-11-23T18:56:32.369Z,15.17
2022-11-23T18:59:00.713Z,13.90
2022-11-23T19:01:30.042Z,14.80
2022-11-23T19:03:58.831Z,14.07
2022-11-23T19:06:27.191Z,13.30
2022-11-23T19:08:57.886Z,12.33
2022-11-23T19:11:28.636Z,12.20
2022-11-23T19:14:01.427Z,11.37
2022-11-23T19:16:32.279Z,11.37
2022-11-23T19:19:03.696Z,10.93
2022-11-23T19:21:33.994Z,11.90
2022-11-23T19:24:04.974Z,11.93
2022-11-23T19:26:33.592Z,10.93
2022-11-23T19:29:02.055Z,11.73
2022-11-23T19:31:32.202Z,11.37
2022-11-23T19:34:02.795Z,12.07
2022-11-23T19:36:33.297Z,12.20
2022-11-23T19:39:03.889Z,11.80
2022-11-23T19:41:32.717Z,12.47
2022-11-23T19:44:02.465Z,13.07
2022-11-23T19:46:32.208Z,12.70
2022-11-23T19:49:01.036Z,12.93
2022-11-23T19:51:29.972Z,14.10
2022-11-23T19:54:00.937Z,13.13
2022-11-23T19:56:31.143Z,13.60
2022-11-23T19:59:01.691Z,12.97
2022-11-23T20:01:33.122Z,13.80
2022-11-23T20:04:08.780Z,14.17
2022-11-23T20:06:42.150Z,13.20
2022-11-23T20:09:13.144Z,13.03
2022-11-23T20:11:46.855Z,14.20
2022-11-23T20:14:17.718Z,13.70
2022-11-23T20:16:46.050Z,17.47
2022-11-23T20:19:14.726Z,18.20
2022-11-23T20:21:43.306Z,18.77
2022-11-23T20:24:15.073Z,17.70
2022-11-23T20:26:44.776Z,16.30
2022-11-23T20:29:14.755Z,21.53
2022-11-23T20:31:43.491Z,18.63
2022-11-23T20:34:16.665Z,20.20
2022-11-23T20:36:48.315Z,20.17
2022-11-23T20:39:16.981Z,20.00
2022-11-23T20:41:49.358Z,19.67
2022-11-23T20:44:17.741Z,20.50
2022-11-23T20:47:01.085Z,19.37
2022-11-23T20:49:31.069Z,20.03
2022-11-23T20:52:00.048Z,19.73
2022-11-23T20:54:28.456Z,21.90
2022-11-23T20:57:00.224Z,21.53
2022-11-23T20:59:29.520Z,19.60
2022-11-23T21:01:58.218Z,18.30
2022-11-23T21:04:27.081Z,21.53
2022-11-23T21:06:55.642Z,21.07
2022-11-23T21:09:24.255Z,20.87
2022-11-23T21:12:10.190Z,21.70
2022-11-23T21:14:40.291Z,22.10
2022-11-23T21:17:08.862Z,20.77
2022-11-23T21:19:40.809Z,20.57
2022-11-23T21:22:11.080Z,20.40
2022-11-23T21:24:39.811Z,19.20
2022-11-23T21:27:13.535Z,17.90
2022-11-23T21:29:45.023Z,25.67
2022-11-23T21:32:14.794Z,22.83
2022-11-23T21:34:43.629Z,21.13
2022-11-23T21:37:13.521Z,20.73
2022-11-23T21:39:43.210Z,21.13
2022-11-23T21:42:13.920Z,19.63
2022-11-23T21:44:43.594Z,16.40
2022-11-23T21:47:12.014Z,19.03
2022-11-23T21:49:40.800Z,18.83
2022-11-23T21:52:09.848Z,15.77
2022-11-23T21:54:38.502Z,15.73
2022-11-23T21:57:09.007Z,17.10
2022-11-23T21:59:37.311Z,15.87
2022-11-23T22:02:07.304Z,15.80
2022-11-23T22:04:38.865Z,15.30
2022-11-23T22:07:07.567Z,16.77
2022-11-23T22:09:35.976Z,19.37
2022-11-23T22:12:04.669Z,17.13
2022-11-23T22:14:33.603Z,19.77
2022-11-23T22:17:02.219Z,18.43
2022-11-23T22:19:33.843Z,18.67
2022-11-23T22:22:02.470Z,19.33
2022-11-23T22:24:31.421Z,18.63
2022-11-23T22:27:00.052Z,17.97
2022-11-23T22:29:28.802Z,15.47
2022-11-23T22:31:57.587Z,15.43
2022-11-23T22:34:26.732Z,15.20
2022-11-23T22:36:56.807Z,14.23
2022-11-23T22:39:25.217Z,14.97
2022-11-23T22:41:53.566Z,14.53
2022-11-23T22:44:22.456Z,13.37
2022-11-23T22:46:53.883Z,15.27
2022-11-23T22:49:22.635Z,15.00
2022-11-23T22:51:51.151Z,14.20
2022-11-23T22:54:20.977Z,12.77
2022-11-23T22:56:49.664Z,13.23
2022-11-23T22:59:18.018Z,12.57
2022-11-23T23:01:46.422Z,12.90
2022-11-23T23:04:15.079Z,13.10
2022-11-23T23:06:43.907Z,12.67
2022-11-23T23:09:12.858Z,12.00
2022-11-23T23:11:42.570Z,10.77
2022-11-23T23:14:10.875Z,9.77
2022-11-23T23:16:39.691Z,10.40
2022-11-23T23:19:08.205Z,9.93
2022-11-23T23:21:37.124Z,9.10
2022-11-23T23:24:06.110Z,8.43
2022-11-23T23:26:34.521Z,8.60
2022-11-23T23:29:04.483Z,8.67
2022-11-23T23:31:32.861Z,8.53
2022-11-23T23:34:01.594Z,8.70
2022-11-23T23:36:30.690Z,8.13
2022-11-23T23:38:59.371Z,7.90
2022-11-23T23:41:27.668Z,7.90
2022-11-23T23:43:56.234Z,8.47
2022-11-23T23:46:26.455Z,8.50
2022-11-23T23:48:54.988Z,8.43
2022-11-23T23:51:24.991Z,8.20
2022-11-23T23:53:54.068Z,8.33
2022-11-23T23:56:25.558Z,8.03
2022-11-23T23:58:55.970Z,8.60
